Time;durP1;ratioP1;P1;durP2;ratioP2;P2;SDS_P1;SDS_P2;PMS_P1;PMS_P2;Temp;Humidity;BMP_temperature;BMP_pressure;BME280_temperature;BME280_humidity;BME280_pressure;Samples;Min_cycle;Max_cycle;Signal;HPM_P1;HPM_P2
2021/10/30 00:01:26;;;;;;;4.93;4.35;;;;;;;;;;5107522;28;20038;-62
2021/10/30 00:03:52;;;;;;;8.98;4.78;;;;;;;;;;5108764;28;20497;-62
2021/10/30 00:06:18;;;;;;;5.10;4.32;;;;;;;;;;5104999;28;20067;-62
2021/10/30 00:08:43;;;;;;;7.40;6.13;;;;;;;;;;5103373;28;20044;-60
2021/10/30 00:11:09;;;;;;;8.13;5.13;;;;;;;;;;5106475;28;20050;-61
2021/10/30 00:13:34;;;;;;;7.20;4.57;;;;;;;;;;5105653;28;20043;-61
2021/10/30 00:16:00;;;;;;;5.47;4.80;;;;;;;;;;5104292;28;20027;-61
2021/10/30 00:18:26;;;;;;;6.78;5.22;;;;;;;;;;5107769;28;20516;-61
2021/10/30 00:20:51;;;;;;;8.48;6.32;;;;;;;;;;5108231;28;20028;-62
2021/10/30 00:23:17;;;;;;;13.57;11.45;;;;;;;;;;5102982;28;20091;-61
2021/10/30 00:25:43;;;;;;;17.38;12.82;;;;;;;;;;5107353;28;20107;-62
2021/10/30 00:28:08;;;;;;;8.63;7.35;;;;;;;;;;5106162;28;20035;-61
2021/10/30 00:30:34;;;;;;;7.50;6.78;;;;;;;;;;5092445;28;20028;-62
2021/10/30 00:32:59;;;;;;;7.50;4.93;;;;;;;;;;5104463;28;20353;-61
2021/10/30 00:35:25;;;;;;;9.40;6.47;;;;;;;;;;5109359;28;20082;-62
2021/10/30 00:37:50;;;;;;;5.57;4.38;;;;;;;;;;5105501;28;20031;-61
2021/10/30 00:40:16;;;;;;;5.47;4.63;;;;;;;;;;5104570;28;20063;-61
2021/10/30 00:42:41;;;;;;;6.80;4.15;;;;;;;;;;5088576;28;20563;-61
2021/10/30 00:45:08;;;;;;;4.63;3.70;;;;;;;;;;5107074;28;20023;-61
2021/10/30 00:47:33;;;;;;;7.63;4.80;;;;;;;;;;5092342;28;20505;-61
2021/10/30 00:50:01;;;;;;;4.20;3.80;;;;;;;;;;5104279;28;20127;-62
2021/10/30 00:52:27;;;;;;;5.57;4.65;;;;;;;;;;5105810;28;20019;-62
2021/10/30 00:54:55;;;;;;;4.88;4.38;;;;;;;;;;5103940;28;20039;-63
2021/10/30 00:57:22;;;;;;;5.18;4.47;;;;;;;;;;5104299;28;20035;-61
2021/10/30 00:59:48;;;;;;;7.90;5.18;;;;;;;;;;5107824;28;20113;-61
2021/10/30 01:02:13;;;;;;;5.60;4.97;;;;;;;;;;5103350;28;20062;-61
2021/10/30 01:04:38;;;;;;;4.75;4.03;;;;;;;;;;5104699;28;20042;-61
2021/10/30 01:07:04;;;;;;;6.43;5.50;;;;;;;;;;5104324;28;20032;-61
2021/10/30 01:09:31;;;;;;;6.20;4.72;;;;;;;;;;5107912;28;20036;-61
2021/10/30 01:11:57;;;;;;;6.88;4.60;;;;;;;;;;5105593;28;20114;-61
2021/10/30 01:14:22;;;;;;;20.90;5.45;;;;;;;;;;5104859;28;20036;-70
2021/10/30 01:16:55;;;;;;;8.07;4.78;;;;;;;;;;5107702;28;20031;-70
2021/10/30 01:19:21;;;;;;;6.50;5.38;;;;;;;;;;5106178;28;20457;-70
2021/10/30 01:21:46;;;;;;;4.05;3.65;;;;;;;;;;5104449;28;20098;-70
2021/10/30 01:24:11;;;;;;;8.77;5.97;;;;;;;;;;5108264;28;20407;-70
2021/10/30 01:26:37;;;;;;;7.97;5.20;;;;;;;;;;5105263;28;20110;-70
2021/10/30 01:29:03;;;;;;;6.82;5.30;;;;;;;;;;5099381;28;20059;-70
2021/10/30 01:31:29;;;;;;;6.00;4.80;;;;;;;;;;5103222;28;20039;-70
2021/10/30 01:33:54;;;;;;;6.32;4.70;;;;;;;;;;5105421;28;20039;-70
2021/10/30 01:36:22;;;;;;;10.18;5.68;;;;;;;;;;5103117;28;20056;-70
2021/10/30 01:38:49;;;;;;;9.45;6.15;;;;;;;;;;5106105;28;20054;-69
2021/10/30 01:41:14;;;;;;;7.88;5.00;;;;;;;;;;5107386;28;20028;-70
2021/10/30 01:43:40;;;;;;;6.07;5.00;;;;;;;;;;5103018;28;20047;-70
2021/10/30 01:46:06;;;;;;;6.32;5.28;;;;;;;;;;5102994;28;20092;-70
2021/10/30 01:48:37;;;;;;;6.90;5.45;;;;;;;;;;5105383;28;20092;-70
2021/10/30 01:51:05;;;;;;;5.75;4.85;;;;;;;;;;5104023;28;20713;-70
2021/10/30 01:53:31;;;;;;;6.35;4.72;;;;;;;;;;5104741;28;20032;-70
2021/10/30 01:55:57;;;;;;;7.40;5.88;;;;;;;;;;5107253;28;20034;-70
2021/10/30 01:58:22;;;;;;;7.88;6.10;;;;;;;;;;5103412;28;20119;-70
2021/10/30 02:00:53;;;;;;;8.38;6.20;;;;;;;;;;5103200;28;20031;-70
2021/10/30 02:03:20;;;;;;;4.53;3.83;;;;;;;;;;5105797;28;20059;-70
2021/10/30 02:05:45;;;;;;;6.95;5.22;;;;;;;;;;5105012;28;20571;-70
2021/10/30 02:08:11;;;;;;;5.47;4.93;;;;;;;;;;5101252;28;20035;-70
2021/10/30 02:10:36;;;;;;;4.75;4.18;;;;;;;;;;5105048;28;20123;-70
2021/10/30 02:13:02;;;;;;;5.85;5.20;;;;;;;;;;5103813;28;20080;-69
2021/10/30 02:15:27;;;;;;;6.40;4.75;;;;;;;;;;5101238;28;20027;-69
2021/10/30 02:17:53;;;;;;;6.47;5.47;;;;;;;;;;5083021;28;20111;-68
2021/10/30 02:20:19;;;;;;;9.90;5.82;;;;;;;;;;5102054;28;20089;-68
2021/10/30 02:22:51;;;;;;;8.65;4.70;;;;;;;;;;5102890;28;20032;-69
2021/10/30 02:25:16;;;;;;;6.13;4.97;;;;;;;;;;5102255;28;20019;-68
2021/10/30 02:27:42;;;;;;;7.28;5.72;;;;;;;;;;5102986;28;20032;-68
2021/10/30 02:30:07;;;;;;;8.15;5.78;;;;;;;;;;5097649;28;20032;-68
2021/10/30 02:32:33;;;;;;;6.47;3.92;;;;;;;;;;5105175;28;20054;-68
2021/10/30 02:34:58;;;;;;;6.28;5.13;;;;;;;;;;5101830;28;20136;-68
2021/10/30 02:37:24;;;;;;;5.65;4.80;;;;;;;;;;5103302;28;20027;-69
2021/10/30 02:39:49;;;;;;;8.18;5.28;;;;;;;;;;5103735;28;20032;-69
2021/10/30 02:42:14;;;;;;;6.72;4.60;;;;;;;;;;5098427;28;20032;-69
2021/10/30 02:44:40;;;;;;;6.18;5.32;;;;;;;;;;5103639;28;20023;-69
2021/10/30 02:47:05;;;;;;;8.02;5.88;;;;;;;;;;5102562;28;20027;-69
2021/10/30 02:49:32;;;;;;;5.68;5.07;;;;;;;;;;5101466;28;20346;-69
2021/10/30 02:51:58;;;;;;;4.63;4.03;;;;;;;;;;5098838;28;20124;-69
2021/10/30 02:54:24;;;;;;;9.48;5.93;;;;;;;;;;5097333;28;20104;-69
2021/10/30 02:56:50;;;;;;;7.32;5.72;;;;;;;;;;5101974;28;20453;-69
2021/10/30 02:59:15;;;;;;;6.97;5.35;;;;;;;;;;5098935;28;20116;-68
2021/10/30 03:01:40;;;;;;;7.13;5.10;;;;;;;;;;5098741;28;20032;-68
2021/10/30 03:04:06;;;;;;;6.07;5.05;;;;;;;;;;5099850;28;20035;-68
2021/10/30 03:06:31;;;;;;;7.18;5.28;;;;;;;;;;5102250;28;20157;-68
2021/10/30 03:08:58;;;;;;;4.63;3.75;;;;;;;;;;5099923;28;20031;-68
2021/10/30 03:11:23;;;;;;;8.65;6.05;;;;;;;;;;5099682;28;20403;-69
2021/10/30 03:13:49;;;;;;;7.00;5.10;;;;;;;;;;5097893;28;20028;-68
2021/10/30 03:16:14;;;;;;;6.53;5.82;;;;;;;;;;5096934;28;20050;-68
2021/10/30 03:18:40;;;;;;;6.97;4.93;;;;;;;;;;5104735;28;20035;-68
2021/10/30 03:21:05;;;;;;;9.85;4.80;;;;;;;;;;5106512;28;20036;-68
2021/10/30 03:23:31;;;;;;;5.78;4.55;;;;;;;;;;5103824;28;20115;-68
2021/10/30 03:25:56;;;;;;;10.85;5.75;;;;;;;;;;5105794;28;20023;-68
2021/10/30 03:28:22;;;;;;;7.65;5.38;;;;;;;;;;5110974;28;20028;-70
2021/10/30 03:30:47;;;;;;;7.13;6.07;;;;;;;;;;5106839;28;20128;-70
2021/10/30 03:33:13;;;;;;;6.70;5.38;;;;;;;;;;5106233;28;20035;-70
2021/10/30 03:35:39;;;;;;;6.53;5.63;;;;;;;;;;5107497;28;20023;-69
2021/10/30 03:38:04;;;;;;;7.07;5.80;;;;;;;;;;5109697;28;20031;-69
2021/10/30 03:40:30;;;;;;;6.63;4.97;;;;;;;;;;5104142;28;20097;-69
2021/10/30 03:42:55;;;;;;;8.70;5.63;;;;;;;;;;5104810;28;20034;-69
2021/10/30 03:45:21;;;;;;;6.45;5.82;;;;;;;;;;5105735;28;20846;-69
2021/10/30 03:47:46;;;;;;;5.35;4.07;;;;;;;;;;5107043;28;20089;-69
2021/10/30 03:50:12;;;;;;;6.28;4.90;;;;;;;;;;5103978;28;20044;-69
2021/10/30 03:52:37;;;;;;;5.10;4.53;;;;;;;;;;5105398;28;20035;-69
2021/10/30 03:55:05;;;;;;;4.95;4.38;;;;;;;;;;5107105;28;20118;-69
2021/10/30 03:57:30;;;;;;;5.70;4.28;;;;;;;;;;5107235;28;20038;-70
2021/10/30 03:59:56;;;;;;;5.10;4.25;;;;;;;;;;5106653;28;20602;-70
2021/10/30 04:02:21;;;;;;;5.47;4.80;;;;;;;;;;5102781;28;20094;-70
2021/10/30 04:04:47;;;;;;;5.65;4.47;;;;;;;;;;5105977;28;20027;-69
2021/10/30 04:07:12;;;;;;;5.90;4.18;;;;;;;;;;5107058;28;20038;-70
2021/10/30 04:09:37;;;;;;;5.63;4.57;;;;;;;;;;5103284;28;20450;-70
2021/10/30 04:12:04;;;;;;;5.90;3.95;;;;;;;;;;5093260;28;20119;-70
2021/10/30 04:14:29;;;;;;;6.78;5.47;;;;;;;;;;5091061;28;20342;-70
2021/10/30 04:16:54;;;;;;;4.93;4.30;;;;;;;;;;5107118;28;20127;-70
2021/10/30 04:19:20;;;;;;;9.23;6.28;;;;;;;;;;5105553;28;20360;-69
2021/10/30 04:21:45;;;;;;;6.70;5.25;;;;;;;;;;5106033;28;20023;-68
2021/10/30 04:24:11;;;;;;;5.80;4.90;;;;;;;;;;5104694;28;20024;-69
2021/10/30 04:26:37;;;;;;;6.70;5.53;;;;;;;;;;5104985;28;20030;-69
2021/10/30 04:29:03;;;;;;;5.72;5.00;;;;;;;;;;5088787;28;20042;-68
2021/10/30 04:31:30;;;;;;;7.88;4.97;;;;;;;;;;5104382;28;20027;-69
2021/10/30 04:34:04;;;;;;;8.43;5.55;;;;;;;;;;5107627;28;20032;-70
2021/10/30 04:36:32;;;;;;;12.98;6.25;;;;;;;;;;5104411;28;20050;-70
2021/10/30 04:38:59;;;;;;;4.78;4.30;;;;;;;;;;5103308;28;20028;-69
2021/10/30 04:41:25;;;;;;;5.93;4.35;;;;;;;;;;5105803;28;20038;-68
2021/10/30 04:43:50;;;;;;;5.97;5.38;;;;;;;;;;5104328;28;20078;-68
2021/10/30 04:46:18;;;;;;;7.70;4.70;;;;;;;;;;5109762;28;20118;-69
2021/10/30 04:48:44;;;;;;;6.15;5.25;;;;;;;;;;5101408;28;20060;-69
2021/10/30 04:51:10;;;;;;;5.53;4.55;;;;;;;;;;5104936;28;20063;-69
2021/10/30 04:53:38;;;;;;;5.60;4.85;;;;;;;;;;5104879;28;20028;-69
2021/10/30 04:56:05;;;;;;;6.32;4.32;;;;;;;;;;5107250;28;20059;-69
2021/10/30 04:58:31;;;;;;;5.65;4.90;;;;;;;;;;5104037;28;20472;-69
2021/10/30 05:00:57;;;;;;;7.43;5.68;;;;;;;;;;5104406;28;20032;-69
2021/10/30 05:03:23;;;;;;;8.40;6.18;;;;;;;;;;5088180;28;20736;-69
2021/10/30 05:05:48;;;;;;;7.85;5.03;;;;;;;;;;5106586;28;20024;-69
2021/10/30 05:08:14;;;;;;;6.70;5.75;;;;;;;;;;5087015;28;20449;-69
2021/10/30 05:10:39;;;;;;;4.93;4.47;;;;;;;;;;5103208;28;20113;-70
2021/10/30 05:13:05;;;;;;;13.32;6.35;;;;;;;;;;5101532;28;20024;-69
2021/10/30 05:15:32;;;;;;;13.82;4.97;;;;;;;;;;5099865;28;20466;-69
2021/10/30 05:17:57;;;;;;;6.35;5.03;;;;;;;;;;5107032;28;20020;-70
2021/10/30 05:20:23;;;;;;;6.00;5.40;;;;;;;;;;5103376;28;20045;-70
2021/10/30 05:22:48;;;;;;;8.10;4.53;;;;;;;;;;5091790;28;20428;-69
2021/10/30 05:25:13;;;;;;;7.03;4.55;;;;;;;;;;5102252;28;20397;-70
2021/10/30 05:27:39;;;;;;;7.15;5.88;;;;;;;;;;5086822;28;20089;-69
2021/10/30 05:30:05;;;;;;;6.60;4.78;;;;;;;;;;5106628;28;20376;-69
2021/10/30 05:32:30;;;;;;;6.30;5.20;;;;;;;;;;5104368;28;20032;-70
2021/10/30 05:34:55;;;;;;;7.00;5.53;;;;;;;;;;5102536;28;20036;-69
2021/10/30 05:37:21;;;;;;;4.80;3.80;;;;;;;;;;5106080;28;20027;-70
2021/10/30 05:39:46;;;;;;;12.23;6.07;;;;;;;;;;5100304;28;20075;-69
2021/10/30 05:42:13;;;;;;;8.75;5.47;;;;;;;;;;5104566;28;20436;-70
2021/10/30 05:44:39;;;;;;;8.00;5.95;;;;;;;;;;5106554;28;20477;-71
2021/10/30 05:47:09;;;;;;;8.88;5.97;;;;;;;;;;5105926;28;20059;-70
2021/10/30 05:49:39;;;;;;;5.18;4.68;;;;;;;;;;5102598;28;20039;-70
2021/10/30 05:52:06;;;;;;;7.03;4.78;;;;;;;;;;5103367;27;20075;-70
2021/10/30 05:54:32;;;;;;;6.82;5.30;;;;;;;;;;5106499;27;20036;-70
2021/10/30 05:56:59;;;;;;;7.10;5.57;;;;;;;;;;5103560;27;20080;-71
2021/10/30 05:59:25;;;;;;;6.32;5.18;;;;;;;;;;5102939;28;20126;-70
2021/10/30 06:01:50;;;;;;;8.88;6.00;;;;;;;;;;5105195;28;20111;-70
2021/10/30 06:04:15;;;;;;;7.35;6.00;;;;;;;;;;5102082;28;20077;-70
2021/10/30 06:06:41;;;;;;;6.20;5.50;;;;;;;;;;5100285;28;20050;-69
2021/10/30 06:09:06;;;;;;;6.80;5.43;;;;;;;;;;5105349;28;20516;-69
2021/10/30 06:11:31;;;;;;;6.20;4.10;;;;;;;;;;5105170;28;20441;-69
2021/10/30 06:13:57;;;;;;;12.90;6.57;;;;;;;;;;5099384;28;20024;-69
2021/10/30 06:16:22;;;;;;;8.57;6.18;;;;;;;;;;5104873;28;20602;-70
2021/10/30 06:18:49;;;;;;;8.75;5.43;;;;;;;;;;5102951;27;20032;-70
2021/10/30 06:21:15;;;;;;;7.78;5.35;;;;;;;;;;5103302;28;20103;-69
2021/10/30 06:23:40;;;;;;;6.80;4.97;;;;;;;;;;5103692;28;20122;-70
2021/10/30 06:26:06;;;;;;;8.48;5.30;;;;;;;;;;5088743;28;20016;-69
2021/10/30 06:28:31;;;;;;;7.93;6.38;;;;;;;;;;5103970;28;20027;-70
2021/10/30 06:30:57;;;;;;;16.65;6.13;;;;;;;;;;5097402;28;20054;-71
2021/10/30 06:33:22;;;;;;;6.95;4.97;;;;;;;;;;5100404;28;20098;-70
2021/10/30 06:35:47;;;;;;;7.53;5.35;;;;;;;;;;5102543;28;20475;-70
2021/10/30 06:38:13;;;;;;;7.13;5.85;;;;;;;;;;5103273;28;20035;-69
2021/10/30 06:40:39;;;;;;;6.07;4.78;;;;;;;;;;5103968;28;20357;-70
2021/10/30 06:43:05;;;;;;;9.50;6.35;;;;;;;;;;5102833;28;20031;-70
2021/10/30 06:45:30;;;;;;;8.20;6.20;;;;;;;;;;5102992;28;20032;-69
2021/10/30 06:47:56;;;;;;;6.32;5.72;;;;;;;;;;5102540;28;20035;-69
2021/10/30 06:50:22;;;;;;;9.27;6.20;;;;;;;;;;5099130;28;20042;-70
2021/10/30 06:52:52;;;;;;;9.63;6.05;;;;;;;;;;5099089;28;20031;-70
2021/10/30 06:55:19;;;;;;;10.60;6.30;;;;;;;;;;5094009;28;20031;-70
2021/10/30 06:57:46;;;;;;;7.88;6.22;;;;;;;;;;5098876;28;20027;-70
2021/10/30 07:00:13;;;;;;;6.65;5.32;;;;;;;;;;5099544;28;20523;-70
2021/10/30 07:02:38;;;;;;;9.70;5.13;;;;;;;;;;5102492;28;20046;-70
2021/10/30 07:05:05;;;;;;;10.05;6.55;;;;;;;;;;5104238;28;20024;-70
2021/10/30 07:07:30;;;;;;;7.25;5.40;;;;;;;;;;5100502;28;20041;-70
2021/10/30 07:09:59;;;;;;;8.85;6.18;;;;;;;;;;5101227;28;20421;-70
2021/10/30 07:12:30;;;;;;;7.85;6.22;;;;;;;;;;5102102;28;20080;-71
2021/10/30 07:14:56;;;;;;;9.35;6.43;;;;;;;;;;5102205;28;20027;-70
2021/10/30 07:17:22;;;;;;;5.55;4.38;;;;;;;;;;5098974;28;20384;-70
2021/10/30 07:19:48;;;;;;;8.35;6.00;;;;;;;;;;5103182;28;20047;-70
2021/10/30 07:22:14;;;;;;;10.85;6.95;;;;;;;;;;5102703;28;20032;-70
2021/10/30 07:24:40;;;;;;;14.35;7.70;;;;;;;;;;5102126;28;20028;-70
2021/10/30 07:27:05;;;;;;;15.23;5.97;;;;;;;;;;5103687;28;20144;-70
2021/10/30 07:29:31;;;;;;;5.35;4.60;;;;;;;;;;5103238;28;20042;-70
2021/10/30 07:31:56;;;;;;;8.63;6.30;;;;;;;;;;5086486;28;20036;-70
2021/10/30 07:34:22;;;;;;;8.95;6.93;;;;;;;;;;5103523;28;20465;-69
2021/10/30 07:36:47;;;;;;;11.98;7.43;;;;;;;;;;5100882;28;20035;-69
2021/10/30 07:39:14;;;;;;;8.95;7.47;;;;;;;;;;5100489;28;20597;-70
2021/10/30 07:41:39;;;;;;;12.00;5.70;;;;;;;;;;5103361;28;20050;-70
2021/10/30 07:44:04;;;;;;;9.27;6.07;;;;;;;;;;5099410;28;20446;-70
2021/10/30 07:46:31;;;;;;;9.98;7.38;;;;;;;;;;5102277;28;20371;-70
2021/10/30 07:48:56;;;;;;;12.10;7.18;;;;;;;;;;5083995;28;20472;-70
2021/10/30 07:51:23;;;;;;;9.93;7.18;;;;;;;;;;5101685;28;20139;-70
2021/10/30 07:53:48;;;;;;;8.95;6.95;;;;;;;;;;5099435;28;20028;-70
2021/10/30 07:56:15;;;;;;;14.38;6.78;;;;;;;;;;5101970;28;20063;-73
2021/10/30 07:58:42;;;;;;;9.40;6.35;;;;;;;;;;5102137;28;20027;-69
2021/10/30 08:01:07;;;;;;;10.20;6.55;;;;;;;;;;5101736;28;20173;-69
2021/10/30 08:03:33;;;;;;;11.85;7.22;;;;;;;;;;5099564;28;20126;-69
2021/10/30 08:05:58;;;;;;;7.95;5.85;;;;;;;;;;5103060;28;20024;-69
2021/10/30 08:08:23;;;;;;;10.35;7.03;;;;;;;;;;5109361;27;20031;-69
2021/10/30 08:10:49;;;;;;;9.02;7.30;;;;;;;;;;5107344;27;20034;-69
2021/10/30 08:13:14;;;;;;;21.27;8.88;;;;;;;;;;5104177;28;20027;-69
2021/10/30 08:15:40;;;;;;;10.15;8.13;;;;;;;;;;5102636;27;21611;-70
2021/10/30 08:18:05;;;;;;;12.70;7.45;;;;;;;;;;5102871;27;20028;-69
2021/10/30 08:20:32;;;;;;;7.50;6.13;;;;;;;;;;5104397;28;20032;-69
2021/10/30 08:22:58;;;;;;;11.05;7.45;;;;;;;;;;5104959;28;20051;-69
2021/10/30 08:25:24;;;;;;;20.33;9.25;;;;;;;;;;5104957;28;20052;-69
2021/10/30 08:27:49;;;;;;;7.32;6.45;;;;;;;;;;5106433;27;20067;-69
2021/10/30 08:30:15;;;;;;;10.73;7.80;;;;;;;;;;5107440;27;20471;-70
2021/10/30 08:32:40;;;;;;;13.93;8.38;;;;;;;;;;5102027;27;20092;-69
2021/10/30 08:35:07;;;;;;;15.82;8.50;;;;;;;;;;5104586;27;20128;-69
2021/10/30 08:37:32;;;;;;;10.10;6.40;;;;;;;;;;5107978;27;20031;-69
2021/10/30 08:39:57;;;;;;;11.30;7.45;;;;;;;;;;5102651;28;20030;-69
2021/10/30 08:42:23;;;;;;;10.60;7.55;;;;;;;;;;5101429;27;20106;-69
2021/10/30 08:44:50;;;;;;;10.45;6.50;;;;;;;;;;5107875;27;20472;-69
2021/10/30 08:47:17;;;;;;;9.80;7.68;;;;;;;;;;5103885;27;20039;-69
2021/10/30 08:49:43;;;;;;;9.75;7.25;;;;;;;;;;5104282;27;20484;-69
2021/10/30 08:52:09;;;;;;;10.77;8.25;;;;;;;;;;5106847;27;20085;-68
2021/10/30 08:54:35;;;;;;;14.43;7.47;;;;;;;;;;5105493;28;20394;-68
2021/10/30 08:57:01;;;;;;;7.35;6.20;;;;;;;;;;5105877;27;20106;-69
2021/10/30 08:59:43;;;;;;;6.85;5.55;;;;;;;;;;5105186;28;20123;-68
2021/10/30 09:02:25;;;;;;;11.32;8.98;;;;;;;;;;5104392;27;20027;-69
2021/10/30 09:05:27;;;;;;;10.25;6.68;;;;;;;;;;5105350;27;20467;-69
2021/10/30 09:07:58;;;;;;;11.82;8.80;;;;;;;;;;5019155;28;20052;-68
2021/10/30 09:10:28;;;;;;;8.77;6.75;;;;;;;;;;5092676;27;20051;-70
2021/10/30 09:12:58;;;;;;;8.88;6.65;;;;;;;;;;5104239;27;20043;-70
2021/10/30 09:15:41;;;;;;;12.07;7.22;;;;;;;;;;5106326;27;20040;-70
2021/10/30 09:18:32;;;;;;;9.75;7.13;;;;;;;;;;5104397;28;20027;-70
2021/10/30 09:21:03;;;;;;;7.75;5.80;;;;;;;;;;5107150;27;20020;-70
2021/10/30 09:23:41;;;;;;;7.97;6.32;;;;;;;;;;5089920;28;20027;-70
2021/10/30 09:26:09;;;;;;;8.55;6.20;;;;;;;;;;5107205;28;20110;-70
2021/10/30 09:28:49;;;;;;;8.57;6.15;;;;;;;;;;5091106;28;20036;-70
2021/10/30 09:31:15;;;;;;;15.27;6.07;;;;;;;;;;5102312;28;20027;-69
2021/10/30 09:34:08;;;;;;;12.88;7.45;;;;;;;;;;5102786;28;20024;-70
2021/10/30 09:36:44;;;;;;;11.23;6.90;;;;;;;;;;5097749;28;20075;-69
2021/10/30 09:39:13;;;;;;;10.95;7.22;;;;;;;;;;5092988;28;20043;-69
2021/10/30 09:41:48;;;;;;;7.72;5.85;;;;;;;;;;5106270;28;20051;-69
2021/10/30 09:44:15;;;;;;;11.65;6.43;;;;;;;;;;5105985;27;20032;-70
2021/10/30 09:46:44;;;;;;;6.60;5.88;;;;;;;;;;5105280;28;20127;-70
2021/10/30 09:49:17;;;;;;;14.23;6.90;;;;;;;;;;5102379;27;20046;-70
2021/10/30 09:51:54;;;;;;;11.40;8.02;;;;;;;;;;5089399;28;20020;-68
2021/10/30 09:54:36;;;;;;;8.98;5.68;;;;;;;;;;5101302;27;20036;-70
2021/10/30 09:57:04;;;;;;;6.50;5.10;;;;;;;;;;5101818;28;20027;-70
2021/10/30 09:59:33;;;;;;;16.00;10.05;;;;;;;;;;5103365;27;20043;-70
2021/10/30 10:01:59;;;;;;;9.35;6.75;;;;;;;;;;5101182;28;20020;-70
2021/10/30 10:04:26;;;;;;;8.70;6.72;;;;;;;;;;5101601;28;20027;-70
2021/10/30 10:06:53;;;;;;;9.88;7.45;;;;;;;;;;5105852;28;20050;-69
2021/10/30 10:09:19;;;;;;;6.75;5.95;;;;;;;;;;5105317;28;20112;-69
2021/10/30 10:11:46;;;;;;;9.05;7.03;;;;;;;;;;5104190;28;20461;-68
2021/10/30 10:14:14;;;;;;;12.70;7.45;;;;;;;;;;5103231;27;20369;-70
2021/10/30 10:16:42;;;;;;;9.52;5.20;;;;;;;;;;5102814;28;20043;-70
2021/10/30 10:19:07;;;;;;;11.18;5.70;;;;;;;;;;5103355;28;20526;-69
2021/10/30 10:21:34;;;;;;;7.85;6.05;;;;;;;;;;5104586;28;20043;-69
2021/10/30 10:24:10;;;;;;;7.45;5.65;;;;;;;;;;5102866;28;20380;-69
2021/10/30 10:26:44;;;;;;;7.60;5.72;;;;;;;;;;5104570;28;20043;-69
2021/10/30 10:29:10;;;;;;;7.45;5.63;;;;;;;;;;5104967;28;20576;-70
2021/10/30 10:31:48;;;;;;;7.70;5.25;;;;;;;;;;5103294;28;20146;-69
2021/10/30 10:34:16;;;;;;;14.07;8.52;;;;;;;;;;5104176;28;20032;-70
2021/10/30 10:36:42;;;;;;;23.65;12.93;;;;;;;;;;5106480;28;20465;-71
2021/10/30 10:39:13;;;;;;;10.85;8.27;;;;;;;;;;5103979;28;20023;-70
2021/10/30 10:41:40;;;;;;;7.47;6.65;;;;;;;;;;5102387;28;20387;-70
2021/10/30 10:44:11;;;;;;;10.90;6.82;;;;;;;;;;5105142;28;20126;-69
2021/10/30 10:46:40;;;;;;;10.77;7.57;;;;;;;;;;5104268;28;20034;-70
2021/10/30 10:49:21;;;;;;;5.95;5.35;;;;;;;;;;5088837;28;20035;-69
2021/10/30 10:51:51;;;;;;;7.68;5.70;;;;;;;;;;5105067;28;20479;-70
2021/10/30 10:54:16;;;;;;;6.60;5.43;;;;;;;;;;5105923;27;20448;-69
2021/10/30 10:56:58;;;;;;;7.07;5.38;;;;;;;;;;5104999;27;20038;-70
2021/10/30 10:59:40;;;;;;;9.60;6.68;;;;;;;;;;5086294;28;20107;-69
2021/10/30 11:02:19;;;;;;;8.00;5.53;;;;;;;;;;5104972;27;20097;-69
2021/10/30 11:05:14;;;;;;;7.93;5.30;;;;;;;;;;5097914;28;20035;-69
2021/10/30 11:07:46;;;;;;;8.30;4.93;;;;;;;;;;5105447;28;20035;-70
2021/10/30 11:10:14;;;;;;;13.55;6.47;;;;;;;;;;5102310;28;20039;-69
2021/10/30 11:13:01;;;;;;;6.03;4.57;;;;;;;;;;5103308;28;20035;-70
2021/10/30 11:15:37;;;;;;;8.98;4.78;;;;;;;;;;5103885;28;20039;-71
2021/10/30 11:18:06;;;;;;;6.05;5.13;;;;;;;;;;5102714;28;20984;-70
2021/10/30 11:20:38;;;;;;;6.05;4.60;;;;;;;;;;5104728;28;20434;-70
2021/10/30 11:23:18;;;;;;;5.57;4.63;;;;;;;;;;5104996;28;20039;-69
2021/10/30 11:25:43;;;;;;;5.53;4.55;;;;;;;;;;5104848;28;20027;-70
2021/10/30 11:28:09;;;;;;;5.78;4.03;;;;;;;;;;5100176;28;20089;-70
2021/10/30 11:30:39;;;;;;;6.55;5.20;;;;;;;;;;5088787;28;20043;-69
2021/10/30 11:33:30;;;;;;;7.97;4.93;;;;;;;;;;5101759;28;20027;-70
2021/10/30 11:36:03;;;;;;;13.02;7.38;;;;;;;;;;5084472;28;20665;-69
2021/10/30 11:38:34;;;;;;;5.90;4.75;;;;;;;;;;5103777;28;20035;-69
2021/10/30 11:41:09;;;;;;;6.15;5.53;;;;;;;;;;5108025;28;20089;-69
2021/10/30 11:43:36;;;;;;;5.75;4.90;;;;;;;;;;5102945;27;20039;-70
2021/10/30 11:46:07;;;;;;;5.50;4.72;;;;;;;;;;5105315;27;20024;-71
2021/10/30 11:48:41;;;;;;;6.82;5.15;;;;;;;;;;5103251;28;20032;-70
2021/10/30 11:51:08;;;;;;;9.02;6.13;;;;;;;;;;5107993;27;20028;-70
2021/10/30 11:53:37;;;;;;;5.28;4.03;;;;;;;;;;5104293;28;20035;-70
2021/10/30 11:56:08;;;;;;;5.95;5.15;;;;;;;;;;5107248;27;20034;-70
2021/10/30 11:58:50;;;;;;;5.20;4.35;;;;;;;;;;5103123;27;20676;-65
2021/10/30 12:01:28;;;;;;;7.35;4.60;;;;;;;;;;5104953;27;20051;-65
2021/10/30 12:03:56;;;;;;;6.15;5.00;;;;;;;;;;5104399;28;20035;-64
2021/10/30 12:06:24;;;;;;;7.07;5.97;;;;;;;;;;5102796;28;20024;-65
2021/10/30 12:08:50;;;;;;;8.10;6.53;;;;;;;;;;5107388;28;20524;-64
2021/10/30 12:11:17;;;;;;;5.75;4.82;;;;;;;;;;5102202;27;20031;-65
2021/10/30 12:13:45;;;;;;;5.25;4.55;;;;;;;;;;5105088;27;20038;-64
2021/10/30 12:16:10;;;;;;;5.63;5.13;;;;;;;;;;5105480;27;20069;-63
2021/10/30 12:18:36;;;;;;;6.10;5.50;;;;;;;;;;5105807;28;20063;-63
2021/10/30 12:21:01;;;;;;;6.15;5.55;;;;;;;;;;5108087;27;20067;-62
2021/10/30 12:23:27;;;;;;;6.07;5.45;;;;;;;;;;5099586;28;20031;-62
2021/10/30 12:26:04;;;;;;;9.32;5.95;;;;;;;;;;5106579;27;20028;-62
2021/10/30 12:28:35;;;;;;;9.27;5.32;;;;;;;;;;5107496;27;20077;-63
2021/10/30 12:31:04;;;;;;;7.57;5.63;;;;;;;;;;5105984;27;20063;-63
2021/10/30 12:33:35;;;;;;;7.15;5.70;;;;;;;;;;5105095;27;20092;-62
2021/10/30 12:36:01;;;;;;;5.93;5.30;;;;;;;;;;5105985;27;20043;-63
2021/10/30 12:38:27;;;;;;;7.88;5.45;;;;;;;;;;5106367;27;20617;-63
2021/10/30 12:40:54;;;;;;;6.70;5.22;;;;;;;;;;5092696;28;20035;-63
2021/10/30 12:43:27;;;;;;;6.07;4.63;;;;;;;;;;5106126;27;20035;-64
2021/10/30 12:45:56;;;;;;;11.55;4.97;;;;;;;;;;5104360;27;20024;-64
2021/10/30 12:48:25;;;;;;;5.82;5.28;;;;;;;;;;5107480;27;20542;-65
2021/10/30 12:51:02;;;;;;;9.55;5.80;;;;;;;;;;5108478;27;20046;-62
2021/10/30 12:53:30;;;;;;;5.40;4.47;;;;;;;;;;5105859;27;20111;-63
2021/10/30 12:55:58;;;;;;;6.75;5.25;;;;;;;;;;5100939;27;20032;-66
2021/10/30 12:58:34;;;;;;;5.70;5.15;;;;;;;;;;5109219;27;20100;-64
2021/10/30 13:00:59;;;;;;;5.32;4.60;;;;;;;;;;5106770;27;20031;-64
2021/10/30 13:03:31;;;;;;;6.20;4.88;;;;;;;;;;5108409;27;20035;-64
2021/10/30 13:05:57;;;;;;;5.05;4.55;;;;;;;;;;5108163;27;20069;-64
2021/10/30 13:08:23;;;;;;;5.88;5.05;;;;;;;;;;5103972;27;20372;-64
2021/10/30 13:10:48;;;;;;;6.07;4.95;;;;;;;;;;5108980;28;20028;-64
2021/10/30 13:13:14;;;;;;;5.68;5.10;;;;;;;;;;5108118;27;20467;-65
2021/10/30 13:15:39;;;;;;;6.50;5.65;;;;;;;;;;5102783;28;20058;-63
2021/10/30 13:18:05;;;;;;;6.18;4.90;;;;;;;;;;5103231;27;20110;-64
2021/10/30 13:20:31;;;;;;;9.88;6.65;;;;;;;;;;5091025;28;20484;-64
2021/10/30 13:22:56;;;;;;;6.55;5.75;;;;;;;;;;5105059;28;20442;-63
2021/10/30 13:25:22;;;;;;;7.93;4.97;;;;;;;;;;5086228;28;20084;-60
2021/10/30 13:27:47;;;;;;;6.65;5.88;;;;;;;;;;5107424;27;20019;-62
2021/10/30 13:30:13;;;;;;;6.72;5.57;;;;;;;;;;5103993;28;20030;-60
2021/10/30 13:32:39;;;;;;;6.60;5.07;;;;;;;;;;5088188;28;20061;-59
2021/10/30 13:35:05;;;;;;;8.63;6.22;;;;;;;;;;5106002;27;20043;-62
2021/10/30 13:37:31;;;;;;;5.82;4.88;;;;;;;;;;5107461;27;20084;-62
2021/10/30 13:39:56;;;;;;;6.63;5.82;;;;;;;;;;5093652;27;20444;-61
2021/10/30 13:42:22;;;;;;;7.85;6.03;;;;;;;;;;5104176;27;20027;-61
2021/10/30 13:44:48;;;;;;;6.75;4.50;;;;;;;;;;5106259;28;20020;-61
2021/10/30 13:47:13;;;;;;;5.57;4.18;;;;;;;;;;5099885;28;20146;-63
2021/10/30 13:49:38;;;;;;;6.72;4.95;;;;;;;;;;5103983;27;20100;-64
2021/10/30 13:52:07;;;;;;;6.78;5.70;;;;;;;;;;5088724;28;20104;-61
2021/10/30 13:54:32;;;;;;;7.93;4.72;;;;;;;;;;5104095;27;20093;-62
2021/10/30 13:56:57;;;;;;;7.30;5.97;;;;;;;;;;5101826;27;20031;-62
2021/10/30 13:59:23;;;;;;;9.13;5.90;;;;;;;;;;5108540;27;20060;-62
2021/10/30 14:01:48;;;;;;;7.53;6.05;;;;;;;;;;5101739;27;20448;-64
2021/10/30 14:04:14;;;;;;;6.13;5.47;;;;;;;;;;5101672;27;20040;-61
2021/10/30 14:06:41;;;;;;;8.48;6.13;;;;;;;;;;5105422;28;20059;-61
2021/10/30 14:09:08;;;;;;;5.85;4.55;;;;;;;;;;5104491;27;20042;-62
2021/10/30 14:11:34;;;;;;;6.65;5.30;;;;;;;;;;5104210;27;20131;-61
2021/10/30 14:14:01;;;;;;;8.40;5.65;;;;;;;;;;5103355;27;20066;-61
2021/10/30 14:16:26;;;;;;;8.48;5.30;;;;;;;;;;5089935;27;20047;-62
2021/10/30 14:18:52;;;;;;;6.65;5.22;;;;;;;;;;5104577;27;20031;-61
2021/10/30 14:21:17;;;;;;;11.20;6.00;;;;;;;;;;5105371;27;20035;-62
2021/10/30 14:23:43;;;;;;;9.10;5.80;;;;;;;;;;5102163;28;20028;-62
2021/10/30 14:26:10;;;;;;;7.18;4.70;;;;;;;;;;5105476;28;20059;-62
2021/10/30 14:28:37;;;;;;;5.85;5.18;;;;;;;;;;5088363;28;20433;-62
2021/10/30 14:31:05;;;;;;;6.75;4.85;;;;;;;;;;5084207;28;20066;-62
2021/10/30 14:33:31;;;;;;;6.18;5.03;;;;;;;;;;5102738;28;20027;-61
2021/10/30 14:35:57;;;;;;;5.15;4.35;;;;;;;;;;5104828;28;20345;-62
2021/10/30 14:38:24;;;;;;;6.78;5.97;;;;;;;;;;5105156;28;20028;-62
2021/10/30 14:40:51;;;;;;;5.00;4.25;;;;;;;;;;5105138;28;20050;-61
2021/10/30 14:43:18;;;;;;;6.75;6.05;;;;;;;;;;5102727;28;20032;-61